Airfield :
LOGIN :

Register | Disclaimer

   EN    FR    IT 

 










Legend :    VFR   Marginal VFR   IFR   Intensive IFR   Very Intensive IFR
Visi :
Ceiling :
>= 8 km
>= 3000ft
5 to 8 km
1000 to 3000 ft
1500m to 5 km
500 to 1000 ft
800 to 1500m
200 to 500 ft
< 800m
< 200 ft
Symbols :   Thunderstorms  Fog  Heavy snow  Heavy precipitations  Wind > 20 kt
SIGMETs :     Misc.  Thunderstorms  Icing  Turbulence  Mountain Waves  Volcanic Ashes






- Airport Elevation : 50 ft
- IATA code : KOI


EGPA - Kirkwall

CURRENT METAR :
  • 231450Z 32019KT 9999 -SHRA FEW008CB SCT022 07/03 Q1003

EXPIRED METARs :
  • 231420Z 32017KT 9999 FEW008CB 07/04 Q1001
  • 231350Z 34024KT 9999 -SHRA FEW014 FEW019CB SCT025 06/03 Q1000
  • 231320Z 29020G30KT 9999 6000N -SHRA FEW014 FEW019CB SCT025 06/04 Q0998
  • 231250Z 28019KT 9999 VCSH FEW014 SCT025 06/03 Q0997
  • 231220Z 28020G30KT 9999 VCSH FEW011 FEW014CB SCT025 05/03 Q0997

TAF TAF EGPA
Valid from the 23 at 15:00 until the 24 at 00:00 UTC


231357Z 2315/2324 30016KT 9999 FEW012 SCT020
TEMPO 2315/2316 33022G32KT 6000 SHRA BKN012CB
PROB30
TEMPO 2316/2324 28020G30KT 6000 SHRA BKN014



MET'MAP, your aeronautical weather chart ! - Copyright ORBIFLY December 2007 - Disclaimer

ORBIFLY MET'MAP TEAM :

Programming & Development : Alexandra Zaïnal
Concept & original design : Baudouin d'Aumeries
Assistance for programming : Marc-Olivier Méhu
Technical & hardware support : Manuel Goepfert

Contact : metmap@orbifly.com




SOURCES & CREDITS :

   NOAA